Time;durP1;ratioP1;P1;durP2;ratioP2;P2;SDS_P1;SDS_P2;PMS_P1;PMS_P2;Temp;Humidity;BMP_temperature;BMP_pressure;BME280_temperature;BME280_humidity;BME280_pressure;Samples;Min_cycle;Max_cycle;Signal;HPM_P1;HPM_P2
2023/04/23 00:01:39;;;;;;;;;;;;;;;13.05;80.55;100780.41;20795512;28;19925;-55
2023/04/23 00:12:00;;;;;;;;;;;;;;;12.93;81.73;100791.22;20781183;28;19928;-56
2023/04/23 00:22:22;;;;;;;;;;;;;;;12.82;84.71;100792.56;20801227;28;19987;-55
2023/04/23 00:32:44;;;;;;;;;;;;;;;12.68;81.17;100800.91;20790709;28;19936;-55
2023/04/23 00:43:06;;;;;;;;;;;;;;;12.53;80.32;100804.09;20731989;28;1782644;-55
2023/04/23 00:53:27;;;;;;;;;;;;;;;12.40;79.89;100813.25;20787105;28;20119;-55
2023/04/23 01:03:51;;;;;;;;;;;;;;;12.17;80.70;100815.88;20805320;28;19971;-56
2023/04/23 01:14:13;;;;;;;;;;;;;;;12.14;81.53;100819.41;20793363;28;19936;-56
2023/04/23 01:24:35;;;;;;;;;;;;;;;12.20;81.56;100822.66;20808041;28;19929;-56
2023/04/23 01:34:57;;;;;;;;;;;;;;;12.17;81.28;100834.03;20776486;28;20435;-55
2023/04/23 01:45:18;;;;;;;;;;;;;;;12.09;80.54;100825.66;20789580;28;20455;-57
2023/04/23 01:55:40;;;;;;;;;;;;;;;12.07;80.25;100832.66;20785110;28;19932;-54
2023/04/23 02:06:03;;;;;;;;;;;;;;;11.92;80.45;100828.84;20794548;28;19928;-57
2023/04/23 02:16:27;;;;;;;;;;;;;;;11.91;80.08;100836.69;20790890;28;20372;-56
2023/04/23 02:26:48;;;;;;;;;;;;;;;11.90;80.42;100832.41;20806539;28;19925;-55
2023/04/23 02:37:10;;;;;;;;;;;;;;;11.73;80.63;100822.66;20804870;28;20395;-57
2023/04/23 02:47:32;;;;;;;;;;;;;;;11.64;84.75;100851.44;20791475;28;20408;-54
2023/04/23 02:57:53;;;;;;;;;;;;;;;11.55;81.82;100850.91;20792236;28;19932;-57
2023/04/23 03:08:15;;;;;;;;;;;;;;;11.40;81.82;100843.63;20803265;28;19928;-56
2023/04/23 03:18:36;;;;;;;;;;;;;;;11.43;82.00;100843.50;20806138;28;19929;-57
2023/04/23 03:28:57;;;;;;;;;;;;;;;11.36;81.75;100849.81;20807553;28;20339;-57
2023/04/23 03:39:19;;;;;;;;;;;;;;;11.15;81.65;100848.78;20802565;28;19925;-57
2023/04/23 03:49:40;;;;;;;;;;;;;;;11.02;81.51;100840.53;20800807;28;19929;-55
2023/04/23 04:00:03;;;;;;;;;;;;;;;10.95;81.34;100839.03;20787621;28;19994;-57
2023/04/23 04:10:24;;;;;;;;;;;;;;;10.91;82.64;100849.53;20802759;28;19925;-57
2023/04/23 04:20:46;;;;;;;;;;;;;;;10.86;84.06;100851.41;20802265;28;20370;-56
2023/04/23 04:31:09;;;;;;;;;;;;;;;10.82;82.60;100850.66;20785875;28;19976;-57
2023/04/23 04:41:31;;;;;;;;;;;;;;;10.82;82.31;100839.47;20790591;28;19963;-55
2023/04/23 04:51:53;;;;;;;;;;;;;;;10.70;87.34;100845.88;20797633;28;19987;-57
2023/04/23 05:02:15;;;;;;;;;;;;;;;10.68;83.90;100849.38;20803021;28;19928;-56
2023/04/23 05:12:40;;;;;;;;;;;;;;;10.62;84.86;100857.34;20796293;28;19929;-57
2023/04/23 05:23:01;;;;;;;;;;;;;;;10.58;85.97;100847.97;20801750;28;19971;-57
2023/04/23 05:33:23;;;;;;;;;;;;;;;10.50;83.73;100847.34;20783104;28;19925;-57
2023/04/23 05:43:47;;;;;;;;;;;;;;;10.64;85.83;100851.22;20780452;28;19969;-56
2023/04/23 05:54:08;;;;;;;;;;;;;;;10.86;85.19;100852.25;20795392;28;20520;-56
2023/04/23 06:04:30;;;;;;;;;;;;;;;11.02;84.02;100842.28;20811888;28;19929;-57
2023/04/23 06:14:52;;;;;;;;;;;;;;;11.08;85.73;100848.09;20805529;28;19960;-55
2023/04/23 06:25:13;;;;;;;;;;;;;;;10.95;84.24;100836.44;20818423;28;19952;-56
2023/04/23 06:35:35;;;;;;;;;;;;;;;11.13;84.56;100829.84;20804026;28;20165;-56
2023/04/23 06:45:56;;;;;;;;;;;;;;;11.33;82.60;100830.03;20797466;28;20010;-56
2023/04/23 06:56:18;;;;;;;;;;;;;;;11.83;83.04;100830.94;20788139;28;20350;-56
2023/04/23 07:06:40;;;;;;;;;;;;;;;12.13;82.12;100819.47;20803478;28;19937;-57
2023/04/23 07:17:01;;;;;;;;;;;;;;;12.30;79.81;100816.25;20800362;28;20328;-57
2023/04/23 07:27:23;;;;;;;;;;;;;;;12.50;79.04;100812.00;20782539;28;19971;-58
2023/04/23 07:37:44;;;;;;;;;;;;;;;12.75;76.49;100807.56;20793400;28;19999;-58
2023/04/23 07:48:06;;;;;;;;;;;;;;;12.81;77.25;100786.53;20788926;28;19971;-58
2023/04/23 07:58:27;;;;;;;;;;;;;;;13.02;76.05;100783.09;20785958;28;20030;-58
2023/04/23 08:08:49;;;;;;;;;;;;;;;13.23;74.67;100746.75;20790767;28;20730;-58
2023/04/23 08:19:10;;;;;;;;;;;;;;;13.47;74.15;100740.50;20785243;28;20335;-57
2023/04/23 08:29:37;;;;;;;;;;;;;;;13.73;70.50;100735.03;20751076;28;20007;-56
2023/04/23 08:39:59;;;;;;;;;;;;;;;13.98;70.23;100717.38;20759251;28;19972;-56
2023/04/23 08:50:22;;;;;;;;;;;;;;;14.32;68.73;100707.13;20775938;28;20592;-57
2023/04/23 09:00:43;;;;;;;;;;;;;;;14.70;67.69;100703.53;20791212;28;19971;-58
2023/04/23 09:11:05;;;;;;;;;;;;;;;14.94;69.29;100701.47;20762809;28;20015;-56
2023/04/23 09:21:27;;;;;;;;;;;;;;;15.31;67.00;100690.03;20797241;28;20600;-56
2023/04/23 09:31:53;;;;;;;;;;;;;;;15.73;64.04;100662.53;20784079;28;20391;-56
2023/04/23 09:42:14;;;;;;;;;;;;;;;16.02;66.48;100671.44;20770368;28;20392;-56
2023/04/23 09:52:39;;;;;;;;;;;;;;;16.28;65.00;100665.56;20792241;28;19971;-56
2023/04/23 10:03:01;;;;;;;;;;;;;;;16.69;63.70;100665.88;20810304;28;19937;-56
2023/04/23 10:13:23;;;;;;;;;;;;;;;16.73;64.50;100656.94;20797907;28;19925;-57
2023/04/23 10:23:46;;;;;;;;;;;;;;;17.00;64.09;100648.31;20800148;28;19990;-56
2023/04/23 10:34:09;;;;;;;;;;;;;;;17.29;63.52;100648.34;20805345;28;19925;-57
2023/04/23 10:44:31;;;;;;;;;;;;;;;17.62;64.00;100638.44;20800083;28;19925;-56
2023/04/23 10:55:15;;;;;;;;;;;;;;;17.72;64.63;100623.88;20798028;28;19931;-55
2023/04/23 11:05:37;;;;;;;;;;;;;;;18.00;64.66;100608.91;20800602;28;19925;-58
2023/04/23 11:16:11;;;;;;;;;;;;;;;18.11;64.91;100610.03;20803036;28;19945;-56
2023/04/23 11:26:33;;;;;;;;;;;;;;;18.53;63.60;100605.44;20801259;28;20011;-56
2023/04/23 11:36:57;;;;;;;;;;;;;;;18.31;63.11;100607.81;20801827;28;20360;-56
2023/04/23 11:47:18;;;;;;;;;;;;;;;18.08;63.81;100605.81;20811405;28;19976;-58
2023/04/23 11:57:41;;;;;;;;;;;;;;;18.78;62.93;100589.78;20795999;28;19929;-56
2023/04/23 12:08:09;;;;;;;;;;;;;;;19.23;59.51;100583.16;20782881;28;20331;-57
2023/04/23 12:18:31;;;;;;;;;;;;;;;19.48;61.20;100577.91;20804777;28;20409;-56
2023/04/23 12:28:58;;;;;;;;;;;;;;;18.97;61.11;100589.38;20803343;28;19932;-57
2023/04/23 12:39:22;;;;;;;;;;;;;;;19.00;61.28;100579.50;20806773;28;19933;-58
2023/04/23 12:49:44;;;;;;;;;;;;;;;18.98;60.11;100560.41;20802082;28;19929;-56
2023/04/23 13:00:07;;;;;;;;;;;;;;;19.68;57.29;100537.94;20783994;28;19967;-55
2023/04/23 13:10:29;;;;;;;;;;;;;;;19.86;59.74;100512.97;20801908;28;19937;-56
2023/04/23 13:20:51;;;;;;;;;;;;;;;19.58;59.08;100510.66;20786796;28;20326;-57
2023/04/23 13:31:12;;;;;;;;;;;;;;;20.22;58.11;100492.84;20789745;28;20024;-56
2023/04/23 13:41:34;;;;;;;;;;;;;;;20.40;56.84;100484.38;20776848;28;19925;-58
2023/04/23 13:51:59;;;;;;;;;;;;;;;20.22;57.05;100454.22;20788696;28;20301;-55
2023/04/23 14:02:22;;;;;;;;;;;;;;;19.99;58.20;100452.47;20787931;28;19925;-55
2023/04/23 14:12:45;;;;;;;;;;;;;;;19.94;56.54;100433.59;20771923;28;19932;-56
2023/04/23 14:23:22;;;;;;;;;;;;;;;19.90;57.49;100432.16;20785479;28;20002;-56
2023/04/23 14:33:43;;;;;;;;;;;;;;;19.80;56.35;100425.88;20819383;28;20368;-57
2023/04/23 14:44:04;;;;;;;;;;;;;;;19.86;57.51;100407.91;20791166;28;19937;-57
2023/04/23 14:54:26;;;;;;;;;;;;;;;19.84;56.43;100406.34;20798990;28;19925;-58
2023/04/23 15:04:47;;;;;;;;;;;;;;;20.06;55.80;100385.38;20790733;28;19975;-56
2023/04/23 15:15:14;;;;;;;;;;;;;;;20.28;56.56;100374.91;20805732;28;19932;-55
2023/04/23 15:25:36;;;;;;;;;;;;;;;20.52;56.24;100366.91;20802180;28;20343;-55
2023/04/23 15:35:57;;;;;;;;;;;;;;;20.22;55.76;100364.88;20797658;28;19971;-57
2023/04/23 15:46:20;;;;;;;;;;;;;;;19.94;55.71;100354.78;20788779;28;19940;-58
2023/04/23 15:56:41;;;;;;;;;;;;;;;19.93;56.83;100342.59;20794701;28;19933;-56
2023/04/23 16:07:03;;;;;;;;;;;;;;;19.91;56.41;100331.38;20798332;28;19929;-57
2023/04/23 16:17:26;;;;;;;;;;;;;;;19.79;55.37;100329.69;20795692;28;19929;-58
2023/04/23 16:27:48;;;;;;;;;;;;;;;19.54;54.96;100322.81;20806748;28;19971;-58
2023/04/23 16:38:10;;;;;;;;;;;;;;;19.34;57.10;100322.66;20799128;28;19983;-57
2023/04/23 16:48:31;;;;;;;;;;;;;;;19.27;57.09;100316.13;20787534;28;20304;-55
2023/04/23 16:58:52;;;;;;;;;;;;;;;18.59;61.77;100342.94;20790516;28;20101;-56
2023/04/23 17:09:14;;;;;;;;;;;;;;;17.30;66.39;100344.00;20780374;28;20385;-56
2023/04/23 17:19:35;;;;;;;;;;;;;;;16.59;67.65;100340.75;20801659;28;20254;-55
2023/04/23 17:29:57;;;;;;;;;;;;;;;16.33;68.95;100313.63;20799709;28;19979;-57
2023/04/23 17:40:18;;;;;;;;;;;;;;;16.15;69.49;100299.09;20796058;28;19929;-57
2023/04/23 17:50:40;;;;;;;;;;;;;;;16.11;69.35;100293.19;20793679;28;19975;-55
2023/04/23 18:01:02;;;;;;;;;;;;;;;16.03;69.53;100292.00;20811603;28;19925;-56
2023/04/23 18:11:23;;;;;;;;;;;;;;;15.95;69.59;100270.75;20804450;28;19956;-55
2023/04/23 18:21:45;;;;;;;;;;;;;;;15.73;72.62;100259.94;20807007;28;19983;-57
2023/04/23 18:32:07;;;;;;;;;;;;;;;15.60;71.25;100249.38;20791909;28;20339;-56
2023/04/23 18:42:28;;;;;;;;;;;;;;;15.42;71.71;100260.91;20805641;28;19929;-57
2023/04/23 18:52:49;;;;;;;;;;;;;;;15.35;71.51;100254.34;20802364;28;19999;-56
2023/04/23 19:03:11;;;;;;;;;;;;;;;15.19;72.23;100245.75;20806515;28;19995;-56
2023/04/23 19:13:46;;;;;;;;;;;;;;;15.19;72.09;100268.38;20813810;28;19968;-57
2023/04/23 19:24:08;;;;;;;;;;;;;;;15.03;75.54;100300.50;20805446;28;19925;-55
2023/04/23 19:34:29;;;;;;;;;;;;;;;14.88;79.00;100317.03;20791770;28;19929;-56
2023/04/23 19:44:51;;;;;;;;;;;;;;;14.64;78.00;100297.53;20814856;28;19929;-54
2023/04/23 19:55:12;;;;;;;;;;;;;;;14.49;84.01;100277.56;20796578;28;19972;-56
2023/04/23 20:05:34;;;;;;;;;;;;;;;14.40;81.08;100269.41;20797757;28;19925;-54
2023/04/23 20:15:55;;;;;;;;;;;;;;;14.38;85.51;100269.47;20799791;28;19959;-56
2023/04/23 20:26:17;;;;;;;;;;;;;;;14.28;80.58;100260.50;20795591;28;20380;-54
2023/04/23 20:36:39;;;;;;;;;;;;;;;14.22;81.83;100242.59;20801612;28;19954;-54
2023/04/23 20:47:04;;;;;;;;;;;;;;;14.15;82.68;100225.63;20776482;28;19952;-56
2023/04/23 20:57:26;;;;;;;;;;;;;;;14.17;82.35;100207.31;20793608;28;20372;-55
2023/04/23 21:07:47;;;;;;;;;;;;;;;14.14;81.29;100170.13;20795347;28;19933;-56
2023/04/23 21:18:08;;;;;;;;;;;;;;;14.13;83.64;100180.63;20795905;28;19956;-54
2023/04/23 21:28:30;;;;;;;;;;;;;;;14.01;84.54;100160.47;20802955;28;20346;-55
2023/04/23 21:38:52;;;;;;;;;;;;;;;13.97;82.85;100138.19;20807988;28;19925;-55
2023/04/23 21:49:13;;;;;;;;;;;;;;;13.91;90.02;100121.16;20811320;28;19960;-56
2023/04/23 21:59:35;;;;;;;;;;;;;;;13.88;85.59;100081.47;20801863;28;19951;-56
2023/04/23 22:09:58;;;;;;;;;;;;;;;13.79;85.24;100071.56;20816231;28;20303;-54
2023/04/23 22:20:22;;;;;;;;;;;;;;;13.76;86.06;100056.13;20797164;28;19983;-55
2023/04/23 22:30:44;;;;;;;;;;;;;;;13.70;85.64;100033.91;20809840;28;19932;-55
2023/04/23 22:41:05;;;;;;;;;;;;;;;13.65;86.58;100022.06;20810755;28;19979;-55
2023/04/23 22:51:29;;;;;;;;;;;;;;;13.65;85.68;100022.91;20808924;28;19929;-55
2023/04/23 23:01:50;;;;;;;;;;;;;;;13.65;85.90;100022.91;20809912;28;19975;-55
2023/04/23 23:12:12;;;;;;;;;;;;;;;13.58;88.95;100000.78;20794474;28;20414;-56
2023/04/23 23:22:34;;;;;;;;;;;;;;;13.47;87.93;99992.75;20807512;28;19983;-56
2023/04/23 23:32:56;;;;;;;;;;;;;;;13.43;86.53;99980.00;20787353;28;19929;-57
2023/04/23 23:43:17;;;;;;;;;;;;;;;13.43;83.94;99973.03;20800474;28;19975;-57
2023/04/23 23:53:39;;;;;;;;;;;;;;;13.38;84.96;99961.22;20793040;28;19983;-55
